Time;durP1;ratioP1;P1;durP2;ratioP2;P2;SDS_P1;SDS_P2;PMS_P1;PMS_P2;Temp;Humidity;BMP_temperature;BMP_pressure;BME280_temperature;BME280_humidity;BME280_pressure;Samples;Min_cycle;Max_cycle;Signal;HPM_P1;HPM_P2
2022/09/23 00:01:00;;;;;;;17.05;13.27;;;;;;;;;;6272379;22;20019;-85
2022/09/23 00:03:40;;;;;;;16.08;13.23;;;;;;;;;;6270657;22;20104;-85
2022/09/23 00:06:10;;;;;;;14.18;12.77;;;;;;;;;;6298852;22;20046;-85
2022/09/23 00:08:36;;;;;;;15.20;13.65;;;;;;;;;;6305668;22;20015;-85
2022/09/23 00:11:16;;;;;;;14.98;13.13;;;;;;;;;;6333063;22;20010;-83
2022/09/23 00:13:43;;;;;;;14.52;13.18;;;;;;;;;;6332244;22;20019;-83
2022/09/23 00:16:11;;;;;;;18.15;13.40;;;;;;;;;;6308564;22;20096;-85
2022/09/23 00:18:37;;;;;;;18.85;13.63;;;;;;;;;;6360661;22;20016;-84
2022/09/23 00:21:04;;;;;;;17.45;13.27;;;;;;;;;;6360652;22;20079;-85
2022/09/23 00:23:30;;;;;;;17.98;13.70;;;;;;;;;;6308324;22;20029;-86
2022/09/23 00:26:01;;;;;;;16.95;13.68;;;;;;;;;;6306877;22;20022;-85
2022/09/23 00:28:27;;;;;;;16.63;13.45;;;;;;;;;;6310704;22;20014;-86
2022/09/23 00:30:53;;;;;;;15.02;13.38;;;;;;;;;;6336027;22;20382;-86
2022/09/23 00:33:41;;;;;;;15.35;13.40;;;;;;;;;;6335807;22;20021;-85
2022/09/23 00:36:15;;;;;;;15.35;13.80;;;;;;;;;;6363722;22;20040;-84
2022/09/23 00:38:41;;;;;;;18.50;14.55;;;;;;;;;;6363690;22;20435;-84
2022/09/23 00:41:07;;;;;;;16.88;13.68;;;;;;;;;;6335274;22;20023;-84
2022/09/23 00:43:37;;;;;;;15.45;13.85;;;;;;;;;;6360944;22;20025;-84
2022/09/23 00:46:07;;;;;;;15.55;13.75;;;;;;;;;;6308910;22;20025;-84
2022/09/23 00:48:34;;;;;;;18.48;14.43;;;;;;;;;;6334240;22;20045;-84
2022/09/23 00:51:01;;;;;;;15.38;13.75;;;;;;;;;;6310620;22;20477;-85
2022/09/23 00:53:27;;;;;;;15.27;13.68;;;;;;;;;;6333961;22;20022;-84
2022/09/23 00:55:58;;;;;;;16.15;14.30;;;;;;;;;;6332404;22;21113;-85
2022/09/23 00:58:26;;;;;;;17.40;15.27;;;;;;;;;;6306075;22;20026;-84
2022/09/23 01:00:52;;;;;;;16.08;14.50;;;;;;;;;;6330491;22;20021;-84
2022/09/23 01:05:54;;;;;;;16.88;14.93;;;;;;;;;;6326632;22;20037;-86
2022/09/23 01:08:20;;;;;;;17.27;13.80;;;;;;;;;;6272992;22;20026;-86
2022/09/23 01:10:55;;;;;;;17.15;15.13;;;;;;;;;;6326060;22;20053;-85
2022/09/23 01:13:22;;;;;;;18.13;14.82;;;;;;;;;;6302603;22;20019;-87
2022/09/23 01:16:06;;;;;;;18.45;15.80;;;;;;;;;;6303885;22;20023;-86
2022/09/23 01:18:32;;;;;;;21.55;15.68;;;;;;;;;;6280776;22;20454;-83
2022/09/23 01:20:58;;;;;;;20.55;14.60;;;;;;;;;;6328796;22;20019;-85
2022/09/23 01:23:30;;;;;;;18.05;14.85;;;;;;;;;;6332015;22;20033;-85
2022/09/23 01:26:05;;;;;;;20.75;14.30;;;;;;;;;;6303630;22;20054;-85
2022/09/23 01:28:40;;;;;;;17.95;13.77;;;;;;;;;;6276976;22;20011;-86
2022/09/23 01:31:15;;;;;;;17.10;15.15;;;;;;;;;;6304195;22;20022;-86
2022/09/23 01:33:41;;;;;;;15.98;14.30;;;;;;;;;;6301908;22;20093;-86
2022/09/23 01:36:17;;;;;;;16.77;13.88;;;;;;;;;;6278648;22;20019;-86
2022/09/23 01:39:02;;;;;;;18.40;14.45;;;;;;;;;;6275511;22;20061;-87
2022/09/23 01:41:34;;;;;;;16.23;14.25;;;;;;;;;;6302072;22;20780;-84
2022/09/23 01:47:20;;;;;;;17.77;14.05;;;;;;;;;;6330198;22;20111;-86
2022/09/23 01:49:56;;;;;;;16.73;14.02;;;;;;;;;;6301229;22;20061;-86
2022/09/23 01:52:26;;;;;;;22.60;13.70;;;;;;;;;;6274650;22;20388;-86
2022/09/23 01:55:05;;;;;;;15.10;13.40;;;;;;;;;;6298609;22;20094;-87
2022/09/23 01:57:37;;;;;;;18.65;13.50;;;;;;;;;;6297825;22;20023;-85
2022/09/23 02:00:21;;;;;;;14.55;13.05;;;;;;;;;;6271635;22;20027;-85
2022/09/23 02:02:53;;;;;;;14.35;12.95;;;;;;;;;;6325004;22;20059;-85
2022/09/23 02:05:45;;;;;;;20.08;14.32;;;;;;;;;;6298408;22;20019;-85
2022/09/23 02:08:14;;;;;;;16.40;14.68;;;;;;;;;;6296097;22;20333;-85
2022/09/23 02:10:43;;;;;;;17.35;14.15;;;;;;;;;;6325944;22;20021;-85
2022/09/23 02:13:14;;;;;;;16.52;14.73;;;;;;;;;;6324815;22;20023;-84
2022/09/23 02:15:48;;;;;;;17.73;14.70;;;;;;;;;;6325798;22;20011;-85
2022/09/23 02:18:14;;;;;;;;;;;;;;;;;;6327972;22;20027;-85
2022/09/23 02:20:58;;;;;;;15.60;13.57;;;;;;;;;;6297050;22;19918;-85
2022/09/23 02:23:31;;;;;;;20.98;14.02;;;;;;;;;;6297877;22;20023;-84
2022/09/23 02:26:03;;;;;;;14.90;13.30;;;;;;;;;;6295577;22;20092;-84
2022/09/23 02:28:44;;;;;;;16.00;14.50;;;;;;;;;;6299163;22;20093;-85
2022/09/23 02:31:15;;;;;;;15.43;13.75;;;;;;;;;;6324229;22;20023;-84
2022/09/23 02:34:04;;;;;;;15.45;13.80;;;;;;;;;;6326435;22;20053;-84
2022/09/23 02:36:33;;;;;;;15.15;13.65;;;;;;;;;;6326040;22;20076;-87
2022/09/23 02:39:02;;;;;;;15.02;13.55;;;;;;;;;;6325259;22;20022;-85
2022/09/23 02:41:35;;;;;;;15.77;14.10;;;;;;;;;;6299208;22;20140;-84
2022/09/23 02:44:01;;;;;;;15.87;13.27;;;;;;;;;;6324952;22;20022;-86
2022/09/23 02:46:28;;;;;;;15.68;13.10;;;;;;;;;;6274980;22;20415;-85
2022/09/23 02:48:59;;;;;;;19.25;14.32;;;;;;;;;;6299240;22;20019;-84
2022/09/23 02:51:27;;;;;;;14.43;12.98;;;;;;;;;;6326255;22;20019;-85
2022/09/23 02:53:57;;;;;;;14.73;13.30;;;;;;;;;;6300432;22;20033;-85
2022/09/23 02:56:23;;;;;;;14.85;13.45;;;;;;;;;;6272712;22;20081;-84
2022/09/23 02:58:50;;;;;;;15.95;13.20;;;;;;;;;;6272650;22;20019;-84
2022/09/23 03:01:26;;;;;;;14.52;13.20;;;;;;;;;;6300595;22;20023;-86
2022/09/23 03:04:13;;;;;;;15.82;13.25;;;;;;;;;;6298443;22;20019;-85
2022/09/23 03:12:46;;;;;;;14.48;13.07;;;;;;;;;;6331932;22;20034;-84
2022/09/23 03:15:43;;;;;;;14.95;12.88;;;;;;;;;;6216630;23;20039;-85
2022/09/23 03:18:13;;;;;;;16.95;12.07;;;;;;;;;;6212367;23;20078;-85
2022/09/23 03:20:59;;;;;;;16.35;11.85;;;;;;;;;;6297728;22;20082;-85
2022/09/23 03:23:27;;;;;;;14.75;12.63;;;;;;;;;;6284977;22;20094;-84
2022/09/23 03:25:54;;;;;;;14.15;12.65;;;;;;;;;;6305731;22;20737;-85
2022/09/23 03:28:22;;;;;;;14.88;13.18;;;;;;;;;;6304402;22;20774;-84
2022/09/23 03:30:50;;;;;;;15.10;13.27;;;;;;;;;;6301722;22;20018;-85
2022/09/23 03:33:26;;;;;;;15.48;13.90;;;;;;;;;;6303735;22;20034;-86
2022/09/23 03:39:06;;;;;;;15.23;13.73;;;;;;;;;;6309960;22;20512;-86
2022/09/23 03:41:36;;;;;;;17.15;14.10;;;;;;;;;;6337615;22;20029;-85
2022/09/23 03:44:03;;;;;;;16.90;13.88;;;;;;;;;;6313060;22;20007;-84
2022/09/23 03:46:29;;;;;;;18.58;14.05;;;;;;;;;;6339050;22;20023;-84
2022/09/23 03:49:31;;;;;;;17.45;14.45;;;;;;;;;;6329768;22;20033;-84
2022/09/23 03:51:59;;;;;;;16.90;14.30;;;;;;;;;;6242992;22;20014;-84
2022/09/23 03:54:28;;;;;;;15.90;14.30;;;;;;;;;;6301400;22;20022;-84
2022/09/23 03:57:09;;;;;;;;;;;;;;;;;;6305017;22;20019;-84
2022/09/23 03:59:35;;;;;;;16.90;14.90;;;;;;;;;;6329348;22;19914;-84
2022/09/23 04:02:02;;;;;;;16.63;14.75;;;;;;;;;;6299245;22;20414;-83
2022/09/23 04:04:31;;;;;;;17.58;15.05;;;;;;;;;;6302332;22;20014;-84
2022/09/23 04:06:57;;;;;;;16.80;14.82;;;;;;;;;;6325922;22;20029;-84
2022/09/23 04:09:24;;;;;;;16.40;14.75;;;;;;;;;;6272629;22;20026;-83
2022/09/23 04:12:23;;;;;;;22.58;14.90;;;9.30;99.90;;;;;;6298817;22;20022;-85
2022/09/23 04:14:49;;;;;;;16.23;14.57;;;;;;;;;;6271320;22;20527;-84
2022/09/23 04:17:16;;;;;;;18.10;14.13;;;;;;;;;;6329174;22;20101;-84
2022/09/23 04:19:42;;;;;;;15.60;14.00;;;;;;;;;;6299783;22;20473;-84
2022/09/23 04:22:08;;;;;;;16.60;14.88;;;;;;;;;;6301716;22;20023;-86
2022/09/23 04:24:34;;;;;;;16.52;15.02;;;;;;;;;;6298016;22;20061;-85
2022/09/23 04:27:00;;;;;;;19.30;15.43;;;;;;;;;;6274677;22;20015;-85
2022/09/23 04:29:26;;;;;;;16.80;14.77;;;;;;;;;;6328121;22;20486;-86
2022/09/23 04:35:15;;;;;;;16.13;14.32;;;;;;;;;;6321910;22;20482;-84
2022/09/23 04:37:41;;;;;;;19.15;15.32;;;;;;;;;;6275199;22;20076;-85
2022/09/23 04:40:08;;;;;;;16.65;15.00;;;;;;;;;;6276720;22;20401;-84
2022/09/23 04:42:34;;;;;;;18.40;15.60;;;;;;;;;;6275570;22;20026;-84
2022/09/23 04:45:12;;;;;;;20.08;14.93;;;;;;;;;;6276488;22;20537;-84
2022/09/23 04:47:38;;;;;;;17.50;14.90;;;;;;;;;;6285695;22;20072;-84
2022/09/23 04:50:05;;;;;;;17.60;15.45;;;;;;;;;;6246998;22;20106;-83
2022/09/23 04:52:31;;;;;;;19.63;15.32;;;;;;;;;;6274736;22;20022;-85
2022/09/23 04:54:57;;;;;;;18.23;16.30;;;;;;;;;;6273649;22;20051;-85
2022/09/23 04:57:33;;;;;;;21.13;16.00;;;;;;;;;;6299763;22;20019;-85
2022/09/23 04:59:59;;;;;;;24.45;15.77;;;;;;;;;;6300677;22;20068;-85
2022/09/23 05:02:27;;;;;;;19.88;15.45;;;;;;;;;;6251286;22;20053;-85
2022/09/23 05:04:53;;;;;;;16.77;15.20;;;;;;;;;;6301611;22;20016;-85
2022/09/23 05:07:19;;;;;;;17.60;15.70;;;;;;;;;;6297954;22;20061;-85
2022/09/23 05:09:46;;;;;;;19.80;15.95;;;;;;;;;;6269182;22;20026;-84
2022/09/23 05:12:12;;;;;;;22.27;15.80;;;;;;;;;;6297213;22;20022;-85
2022/09/23 05:17:13;;;;;;;19.00;15.38;;;;;;;;;;6328610;22;20046;-84
2022/09/23 05:19:39;;;;;;;19.58;15.73;;;;;;;;;;6273420;22;20022;-84
2022/09/23 05:22:05;;;;;;;18.67;16.17;;;;;;;;;;6302399;22;20037;-85
2022/09/23 05:24:31;;;;;;;19.50;16.50;;;;;;;;;;6277882;22;20131;-85
2022/09/23 05:26:57;;;;;;;24.88;17.45;;;;;;;;;;6275042;22;20022;-85
2022/09/23 05:29:23;;;;;;;18.77;16.77;;;;;;;;;;6303470;22;20094;-87
2022/09/23 05:31:50;;;;;;;18.67;16.75;;;;;;;;;;6278180;22;20046;-84
2022/09/23 05:34:17;;;;;;;18.63;16.67;;;;;;;;;;6278014;22;20389;-84
2022/09/23 05:36:43;;;;;;;18.55;16.50;;;;;;;;;;6273133;22;20029;-83
2022/09/23 05:39:09;;;;;;;24.48;17.77;;;;;;;;;;6247744;22;20022;-84
2022/09/23 05:41:36;;;;;;;17.77;15.90;;;;;;;;;;6273153;22;20018;-85
2022/09/23 05:56:24;;;;;;;17.85;16.02;;;;;;;;;;6337834;22;21170;-86
2022/09/23 05:58:51;;;;;;;21.23;16.90;;;;;;;;;;6301896;22;20019;-85
2022/09/23 06:01:20;;;;;;;20.75;16.58;;;;;;;;;;6329356;22;20450;-85
2022/09/23 06:03:59;;;;;;;17.48;15.63;;;;;;;;;;6275278;22;20451;-85
2022/09/23 06:06:28;;;;;;;21.08;15.18;;;;;;;;;;6273132;22;20450;-84
2022/09/23 06:09:04;;;;;;;16.58;14.93;;;;;;;;;;6300545;22;20030;-84
2022/09/23 06:11:31;;;;;;;17.33;15.55;;;;;;;;;;6302587;22;20018;-85
2022/09/23 06:14:01;;;;;;;20.25;15.82;;;;;;;;;;6253558;22;20019;-85
2022/09/23 06:16:31;;;;;;;18.77;16.33;;;;;;;;;;6300366;22;20029;-85
2022/09/23 06:18:59;;;;;;;17.67;15.77;;;;;;;;;;6332448;22;20015;-85
2022/09/23 06:21:25;;;;;;;18.80;15.27;;;;;;;;;;6275209;22;20472;-86
2022/09/23 06:23:51;;;;;;;19.00;16.88;;;;;;;;;;6331177;22;20114;-85
2022/09/23 06:26:17;;;;;;;17.08;15.30;;;;;;;;;;6300549;22;20065;-84
2022/09/23 06:28:44;;;;;;;21.55;15.60;;;;;;;;;;6329199;22;20015;-85
2022/09/23 06:31:12;;;;;;;22.17;16.05;;;;;;;;;;6277323;22;20108;-86
2022/09/23 06:33:38;;;;;;;23.85;16.10;;;;;;;;;;6300907;22;20022;-85
2022/09/23 06:36:06;;;;;;;17.55;15.02;;;;;;;;;;6250094;22;20548;-85
2022/09/23 06:38:33;;;;;;;18.98;16.17;;;;;;;;;;6275997;22;20050;-86
2022/09/23 06:41:00;;;;;;;19.65;15.82;;;;;;;;;;6276349;22;20015;-86
2022/09/23 06:43:26;;;;;;;19.95;16.60;;;;;;;;;;6301353;22;20060;-84
2022/09/23 06:46:03;;;;;;;17.15;15.32;;;;;;;;;;6333720;22;20023;-86
2022/09/23 06:48:29;;;;;;;20.38;15.88;;;;;;;;;;6276048;22;20030;-87
2022/09/23 06:51:01;;;;;;;24.23;16.33;;;;;;;;;;6252114;22;20068;-85
2022/09/23 06:53:30;;;;;;;19.73;16.23;;;;;;;;;;6329466;22;20078;-86
2022/09/23 06:56:04;;;;;;;23.85;16.05;;;;;;;;;;6277590;22;20430;-86
2022/09/23 07:01:07;;;;;;;20.52;16.05;;;;;;;;;;6328315;22;20304;-85
2022/09/23 07:03:33;;;;;;;18.17;16.23;;;;;;;;;;6300924;22;20019;-86
2022/09/23 07:06:00;;;;;;;20.02;16.25;;;;;;;;;;6273213;22;20124;-87
2022/09/23 07:08:27;;;;;;;18.15;16.15;;;;;;;;;;6273987;22;20473;-87
2022/09/23 07:10:56;;;;;;;18.38;16.25;;;;;;;;;;6273228;22;20019;-87
2022/09/23 07:13:22;;;;;;;22.23;16.75;;;;;;;;;;6275231;22;20018;-86
2022/09/23 07:15:52;;;;;;;17.67;15.80;;;;;;;;;;6271894;22;20107;-86
2022/09/23 07:18:18;;;;;;;17.42;15.60;;;;;;;;;;6276611;22;20046;-87
2022/09/23 07:20:47;;;;;;;17.83;16.00;;;;;;;;;;6272824;22;20025;-84
2022/09/23 07:23:13;;;;;;;21.15;16.35;;;;;;;;;;6298641;22;20129;-85
2022/09/23 07:25:41;;;;;;;17.25;15.38;;;;;;;;;;6299693;22;20022;-84
2022/09/23 07:28:07;;;;;;;20.30;15.93;;;;;;;;;;6298438;22;20022;-85
2022/09/23 07:30:37;;;;;;;17.33;15.30;;;;;;;;;;6275700;22;20320;-84
2022/09/23 07:33:12;;;;;;;18.75;15.27;;;;;;;;;;6298333;22;20038;-85
2022/09/23 07:35:57;;;;;;;15.85;13.98;;;;;;;;;;6328174;22;20031;-86
2022/09/23 07:38:35;;;;;;;19.25;15.18;;;;;;;;;;6298607;22;20014;-85
2022/09/23 07:41:02;;;;;;;16.63;14.70;;;;;;;;;;6270166;22;20923;-84
2022/09/23 07:43:31;;;;;;;17.70;14.43;;;;;;;;;;6324808;22;20023;-86
2022/09/23 07:45:57;;;;;;;18.98;15.15;;;;;;;;;;6325844;22;20018;-84
2022/09/23 07:48:23;;;;;;;20.15;14.98;;;;;;;;;;6327119;22;20350;-84
2022/09/23 07:50:49;;;;;;;16.95;15.10;;;;;;;;;;6295734;22;20010;-84
2022/09/23 07:53:15;;;;;;;21.17;15.52;;;;;;;;;;6272991;22;20393;-85
2022/09/23 07:55:42;;;;;;;22.08;16.45;;;;;;;;;;6325131;22;20015;-85
2022/09/23 07:58:08;;;;;;;17.55;15.77;;;;;;;;;;6300313;22;20442;-85
2022/09/23 08:00:35;;;;;;;19.67;15.90;;;;;;;;;;6294698;22;20027;-86
2022/09/23 08:03:01;;;;;;;19.27;15.30;;;;;;;;;;6270708;22;20030;-85
2022/09/23 08:05:27;;;;;;;17.02;15.32;;;;;;;;;;6269202;22;20351;-85
2022/09/23 08:07:53;;;;;;;17.88;16.02;;;;;;;;;;6271336;22;21034;-85
2022/09/23 08:10:19;;;;;;;17.33;14.77;;;;;;;;;;6250464;22;20025;-83
2022/09/23 08:12:46;;;;;;;24.38;15.43;;;;;;;;;;6248514;22;20080;-85
2022/09/23 08:15:12;;;;;;;19.33;15.30;;;;;;;;;;6305362;22;20018;-85
2022/09/23 08:17:38;;;;;;;22.25;15.35;;;;;;;;;;6303595;22;20011;-86
2022/09/23 08:20:05;;;;;;;17.48;15.52;;;;;;;;;;6275874;22;20145;-86
2022/09/23 08:22:31;;;;;;;19.75;16.10;;;;;;;;;;6299054;22;20291;-86
2022/09/23 08:24:57;;;;;;;17.33;15.52;;;;;;;;;;6274916;22;20030;-86
2022/09/23 08:27:23;;;;;;;22.23;15.32;;;;;;;;;;6272034;22;20449;-85
2022/09/23 08:29:49;;;;;;;16.25;13.90;;;;;;;;;;6248012;22;20053;-85
2022/09/23 08:32:16;;;;;;;16.85;14.60;;;;;;;;;;6298645;22;20027;-85
2022/09/23 08:34:42;;;;;;;17.08;15.10;;;;;;;;;;6297674;22;20015;-86
2022/09/23 08:37:11;;;;;;;19.95;14.38;;;;;;;;;;6325777;22;20030;-85
2022/09/23 08:39:37;;;;;;;19.08;14.75;;;;;;;;;;6294973;22;20026;-87
2022/09/23 08:42:21;;;;;;;17.48;14.02;;;;;;;;;;6246635;22;20450;-85
2022/09/23 08:44:50;;;;;;;18.67;13.88;;;;;;;;;;6272269;22;20023;-86
2022/09/23 08:47:31;;;;;;;15.82;12.80;;;;;;;;;;6325895;22;20018;-89
2022/09/23 08:50:20;;;;;;;15.65;13.70;;;;;;;;;;6326395;22;20023;-87
2022/09/23 08:52:50;;;;;;;16.17;14.00;;;;;;;;;;6322091;22;20023;-87
2022/09/23 08:55:18;;;;;;;22.45;13.73;;;;;;;;;;6298934;22;20125;-86
2022/09/23 08:58:03;;;;;;;19.67;13.30;;;;;;;;;;6268988;22;20090;-87
2022/09/23 09:00:56;;;;;;;17.48;13.80;;;;;;;;;;6323636;22;20023;-86
2022/09/23 09:03:23;;;;;;;16.15;13.35;;;;;;;;;;6265887;22;20018;-86
2022/09/23 09:05:50;;;;;;;16.95;13.25;;;;;;;;;;6268805;22;20587;-85
2022/09/23 09:08:23;;;;;;;18.92;13.13;;;;;;;;;;6294483;22;20480;-85
2022/09/23 09:10:51;;;;;;;18.02;13.10;;;;;;;;;;6294215;22;20435;-85
2022/09/23 09:13:42;;;;;;;14.23;12.80;;;;;;;;;;6295023;22;20061;-86
2022/09/23 09:16:27;;;;;;;22.52;13.30;;;;;;;;;;6276022;22;20023;-84
2022/09/23 09:18:54;;;;;;;18.05;12.93;;;;;;;;;;6269939;22;20093;-84
2022/09/23 09:21:47;;;;;;;18.98;12.65;;;;;;;;;;6297249;22;20394;-86
2022/09/23 09:24:21;;;;;;;18.23;12.98;;;;;;;;;;6315770;22;20023;-85
2022/09/23 09:26:47;;;;;;;16.20;12.82;;;;;;;;;;6272796;22;20018;-85
2022/09/23 09:29:19;;;;;;;17.20;12.90;;;;;;;;;;6270447;22;20477;-86
2022/09/23 09:31:46;;;;;;;17.55;13.25;;;;;;;;;;6323290;22;20469;-84
2022/09/23 09:34:31;;;;;;;17.67;12.68;;;;;;;;;;6294497;22;20054;-85
2022/09/23 09:37:05;;;;;;;14.65;13.15;;;;;;;;;;6271392;22;20019;-86
2022/09/23 09:39:35;;;;;;;14.20;12.70;;;;;;;;;;6272029;22;20040;-87
2022/09/23 09:42:01;;;;;;;19.48;12.73;;;;;;;;;;6298065;22;20225;-86
2022/09/23 09:44:39;;;;;;;19.20;14.02;;;;;;;;;;6324831;22;20019;-86
2022/09/23 09:47:16;;;;;;;18.33;13.75;;;;;;;;;;6324200;22;20026;-84
2022/09/23 09:49:46;;;;;;;24.83;14.88;;;;;;;;;;6268926;22;20345;-86
2022/09/23 09:52:12;;;;;;;17.92;13.05;;;;;;;;;;6268910;22;20030;-86
2022/09/23 09:54:38;;;;;;;16.50;12.55;;;;;;;;;;6294215;22;20018;-86
2022/09/23 09:57:05;;;;;;;15.75;12.85;;;;;;;;;;6298746;22;20433;-86
2022/09/23 09:59:31;;;;;;;19.90;13.18;;;;;;;;;;6296385;22;21136;-86
2022/09/23 10:02:13;;;;;;;22.92;15.57;;;;;;;;;;6248393;22;20019;-86
2022/09/23 10:04:40;;;;;;;19.05;14.77;;;;;;;;;;6272050;22;20023;-85
2022/09/23 10:07:09;;;;;;;16.15;14.45;;;;;;;;;;6298482;22;20022;-85
2022/09/23 10:09:36;;;;;;;15.90;13.82;;;;;;;;;;6271085;22;20106;-86
2022/09/23 10:12:14;;;;;;;19.05;12.85;;;;;;;;;;6294857;22;20478;-86
2022/09/23 10:14:50;;;;;;;13.80;11.70;;;;;;;;;;6323610;22;20030;-86
2022/09/23 10:17:32;;;;;;;16.88;11.55;;;;;;;;;;6296226;22;20019;-85
2022/09/23 10:20:05;;;;;;;18.88;12.73;;;;;;;;;;6299249;22;20054;-85
2022/09/23 10:22:33;;;;;;;19.23;11.85;;;;;;;;;;6325820;22;20015;-85
2022/09/23 10:25:10;;;;;;;19.17;13.32;;;;;;;;;;6270054;22;20094;-85
2022/09/23 10:27:37;;;;;;;14.05;11.75;;;;;;;;;;6297119;22;20023;-82
2022/09/23 10:30:21;;;;;;;14.75;10.75;;;;;;;;;;6297422;22;20014;-85
2022/09/23 10:32:48;;;;;;;13.35;10.38;;;;;;;;;;6301270;22;20027;-85
2022/09/23 10:35:15;;;;;;;12.98;10.20;;;;;;;;;;6328009;22;20015;-84
2022/09/23 10:37:50;;;;;;;19.00;10.70;;;;;;;;;;6299216;22;20026;-85
2022/09/23 10:49:31;;;;;;;12.52;9.35;;;;;;;;;;6299083;22;20033;-85
2022/09/23 10:52:17;;;;;;;12.88;11.50;;;;;;;;;;6269613;22;20095;-84
2022/09/23 10:54:58;;;;;;;14.85;11.40;;;;;;;;;;6274350;22;20019;-84
2022/09/23 11:00:46;;;;;;;13.10;10.05;;;;;;;;;;6327682;22;20109;-86
2022/09/23 11:03:32;;;;;;;19.45;10.65;;;;;;;;;;6300951;22;20026;-85
2022/09/23 11:06:07;;;;;;;14.27;10.73;;;;;;;;;;6272840;22;20106;-86
2022/09/23 11:08:41;;;;;;;22.25;10.20;;;;;;;;;;6299959;22;20018;-85
2022/09/23 11:11:10;;;;;;;14.10;10.32;;;;;;;;;;6276054;22;20025;-85
2022/09/23 11:13:55;;;;;;;14.07;10.48;;;;;;;;;;6329128;22;20072;-85
2022/09/23 11:16:24;;;;;;;18.92;10.57;;;;;;;;;;6274926;22;20083;-85
2022/09/23 11:18:54;;;;;;;13.82;10.13;;;;;;;;;;6299142;22;20019;-85
2022/09/23 11:21:39;;;;;;;16.20;10.20;;;;;;;;;;6275107;22;20011;-86
2022/09/23 11:24:18;;;;;;;15.35;10.27;;;;;;;;;;6329851;22;20018;-88
2022/09/23 11:27:04;;;;;;;15.32;10.07;;;;;;;;;;6249301;22;20030;-85
2022/09/23 11:29:41;;;;;;;13.95;10.70;;;;;;;;;;6302971;22;20019;-87
2022/09/23 11:32:29;;;;;;;11.18;8.00;;;;;;;;;;6275307;22;20097;-87
2022/09/23 11:35:15;;;;;;;11.10;8.02;;;;;;;;;;6276803;22;20015;-86
2022/09/23 11:37:49;;;;;;;11.52;7.55;;;;;;;;;;6330054;22;20030;-86
2022/09/23 11:40:18;;;;;;;10.00;8.57;;;;;;;;;;6278823;22;20044;-89
2022/09/23 11:43:14;;;;;;;10.73;8.57;;;;;;;;;;6334079;22;20014;-86
2022/09/23 11:45:55;;;;;;;11.43;8.18;;;;;;;;;;6246260;22;20014;-86
2022/09/23 11:48:44;;;;;;;9.18;8.10;;;;;;;;;;6331817;22;20030;-87
2022/09/23 11:51:30;;;;;;;10.63;8.15;;;;;;;;;;6257007;22;20387;-86
2022/09/23 11:54:15;;;;;;;12.52;9.27;;;;;;;;;;6274275;22;20076;-87
2022/09/23 11:57:00;;;;;;;18.10;9.15;;;;;;;;;;6275439;22;20021;-86
2022/09/23 11:59:42;;;;;;;16.65;8.82;;;;;;;;;;6298943;22;20086;-87
2022/09/23 12:02:26;;;;;;;11.50;8.70;;;;;;;;;;6301368;22;20062;-84
2022/09/23 12:05:20;;;;;;;16.35;9.85;;;;;;;;;;6299058;22;20025;-86
2022/09/23 12:07:53;;;;;;;13.35;8.60;;;;;;;;;;6282578;22;20015;-86
2022/09/23 12:14:01;;;;;;;11.85;9.38;;;;;;;;;;6330020;22;20037;-87
2022/09/23 12:16:28;;;;;;;14.25;9.52;;;;;;;;;;6327788;22;20027;-86
2022/09/23 12:19:01;;;;;;;14.48;8.82;;;;;;;;;;6303175;22;20023;-87
2022/09/23 12:21:27;;;;;;;11.80;8.30;;;;;;;;;;6300169;22;20023;-86
2022/09/23 12:27:01;;;;;;;11.52;9.02;;;;;;;;;;6321359;22;20033;-88
2022/09/23 12:36:28;;;;;;;17.02;9.05;;;;;;;;;;6329786;22;20122;-86
2022/09/23 12:42:15;;;;;;;12.32;9.40;;;;;;;;;;6311664;22;20019;-85
2022/09/23 12:44:43;;;;;;;16.45;9.95;;;;;;;;;;6284042;22;20066;-85
2022/09/23 12:50:47;;;;;;;13.77;9.30;;;;;;;;;;6341576;22;20087;-87
2022/09/23 12:53:32;;;;;;;14.98;8.82;;;;;;;;;;6276124;22;20046;-87
2022/09/23 12:56:01;;;;;;;18.33;9.80;;;;;;;;;;6276383;22;20067;-86
2022/09/23 12:58:47;;;;;;;14.75;10.43;;;;;;;;;;6306796;22;20045;-87
2022/09/23 13:01:47;;;;;;;10.88;8.95;;;17.40;99.90;;;;;;6303013;22;20029;-90
2022/09/23 13:15:24;;;;;;;12.65;9.20;;;;;;;;;;6337503;22;20025;-86
2022/09/23 13:18:14;;;;;;;12.38;9.27;;;;;;;;;;6236295;23;20016;-86
2022/09/23 13:50:49;;;;;;;20.70;11.88;;;;;;;;;;6257281;22;20662;-86
2022/09/23 13:59:30;;;;;;;15.85;11.45;;;;;;;;;;6293707;22;20030;-86
2022/09/23 14:02:13;;;;;;;17.80;11.68;;;;;;;;;;6241834;22;20092;-86
2022/09/23 14:04:39;;;;;;;15.07;11.00;;;;;;;;;;6269134;22;20352;-86
2022/09/23 14:07:17;;;;;;;18.40;11.38;;;;;;;;;;6243857;22;20024;-85
2022/09/23 14:09:58;;;;;;;15.65;10.63;;;;;;;;;;6245376;22;20432;-86
2022/09/23 14:12:24;;;;;;;15.73;11.30;;;;;;;;;;6219930;22;20051;-85
2022/09/23 14:15:02;;;;;;;16.17;11.18;;;;;;;;;;6244628;22;20149;-87
2022/09/23 14:17:29;;;;;;;13.25;11.40;;;;;;;;;;6297242;22;20547;-88
2022/09/23 14:19:57;;;;;;;13.13;11.43;;;;;;;;;;6270613;22;20023;-86
2022/09/23 14:22:36;;;;;;;13.05;11.70;;;;;;;;;;6257220;22;20026;-85
2022/09/23 14:30:42;;;;;;;;;;;;;;;;;;;;;
2022/09/23 14:33:30;;;;;;;14.35;11.20;;;;;;;;;;6300689;22;20061;-86
2022/09/23 14:36:02;;;;;;;17.52;13.07;;;;;;;;;;6255742;22;20110;-87
2022/09/23 14:39:06;;;;;;;15.23;11.30;;;;;;;;;;6252105;22;20023;-88
2022/09/23 14:44:23;;;;;;;13.38;10.95;;;;;;;;;;6307697;22;20019;-87
2022/09/23 14:46:57;;;;;;;15.48;11.77;;;;;;;;;;6269737;22;20351;-88
2022/09/23 14:49:24;;;;;;;15.07;12.18;;;;;;;;;;6302055;22;20030;-88
2022/09/23 14:51:54;;;;;;;15.15;11.82;;;;;;;;;;6281921;22;20024;-88
2022/09/23 15:05:02;;;;;;;17.08;12.05;;;;;;;;;;6296695;22;20027;-89
2022/09/23 15:14:40;;;;;;;18.83;12.73;;;;;;;;;;6259975;22;20049;-88
2022/09/23 15:22:56;;;;;;;15.45;12.95;;;;;;;;;;6292139;22;20034;-89
2022/09/23 15:25:30;;;;;;;18.33;13.13;;;;;;;;;;6299812;22;20031;-89
2022/09/23 15:27:56;;;;;;;17.10;13.33;;;;;;;;;;6302339;22;20019;-90
2022/09/23 15:30:22;;;;;;;18.65;14.25;;;;;;;;;;6273262;22;20052;-89
2022/09/23 15:38:09;;;;;;;19.42;15.52;;;;;;;;;;6302171;22;20034;-89
2022/09/23 15:40:36;;;;;;;19.63;14.32;;;;;;;;;;6272766;22;20016;-92
2022/09/23 15:43:15;;;;;;;17.23;13.95;;;;;;;;;;6249413;22;20041;-89
2022/09/23 15:49:15;;;;;;;19.35;14.70;;;;;;;;;;6308869;22;20068;-89
2022/09/23 15:51:43;;;;;;;;;;;;;;;;;;6279507;22;20054;-89
2022/09/23 15:57:43;;;;;;;25.80;15.57;;;;;;;;;;6271288;22;20046;-85
2022/09/23 16:03:34;;;;;;;22.35;15.40;;;;;;;;;;6304744;22;20391;-88
2022/09/23 16:16:46;;;;;;;20.67;16.67;;;;;;;;;;6292093;22;20034;-85
2022/09/23 16:19:16;;;;;;;20.83;17.38;;;;;;;;;;6267758;22;20027;-87
2022/09/23 16:21:52;;;;;;;21.17;17.77;;;;;;;;;;6271648;22;20061;-87
2022/09/23 16:24:43;;;;;;;20.08;17.90;;;;;;;;;;6223544;22;20020;-87
2022/09/23 16:27:34;;;;;;;21.85;17.35;;;;;;;;;;6261268;22;20025;-86
2022/09/23 16:35:29;;;;;;;24.95;21.38;;;;;;;;;;6296722;22;20042;-85
2022/09/23 16:37:55;;;;;;;29.58;20.52;;;;;;;;;;6239658;22;20110;-84
2022/09/23 16:40:30;;;;;;;25.02;20.90;;;;;;;;;;6216429;22;20023;-84
2022/09/23 16:43:03;;;;;;;24.60;20.52;;;;;;;;;;6266589;22;20019;-83
2022/09/23 16:45:30;;;;;;;27.17;20.90;;;;;;;;;;6298054;22;20023;-84
2022/09/23 16:47:56;;;;;;;24.35;20.55;;;;;;;;;;6238785;22;20030;-84
2022/09/23 16:56:40;;;;;;;27.50;20.30;;;;;;;;;;6299090;22;20030;-83
2022/09/23 17:04:57;;;;;;;26.92;21.42;;;;;;;;;;6247842;22;20019;-83
2022/09/23 17:07:24;;;;;;;26.88;21.90;;;;;;;;;;6217831;22;20490;-82
2022/09/23 17:09:50;;;;;;;27.17;22.48;;;;;;;;;;6222370;22;20011;-81
2022/09/23 17:12:25;;;;;;;22.88;20.05;;;;;;;;;;6273491;22;20015;-83
2022/09/23 17:14:52;;;;;;;26.80;22.20;;;;;;;;;;6270153;22;20023;-83
2022/09/23 17:17:18;;;;;;;26.92;22.17;;;;;;;;;;6216272;22;20019;-83
2022/09/23 17:19:44;;;;;;;30.65;22.63;;;;;;;;;;6243953;22;20015;-83
2022/09/23 17:22:10;;;;;;;25.73;21.63;;;;;;;;;;6240772;22;20452;-83
2022/09/23 17:24:48;;;;;;;25.30;21.35;;;;;;;;;;6269097;22;20023;-82
2022/09/23 17:30:45;;;;;;;23.58;20.15;;;;;;;;;;6237609;22;20134;-83
2022/09/23 17:33:49;;;;;;;28.10;20.15;;;;;;;;;;6243205;22;20336;-84
2022/09/23 17:39:37;;;;;;;27.75;20.50;;;;;;;;;;6291999;22;20026;-83
2022/09/23 17:42:03;;;;;;;24.17;19.73;;;;;;;;;;6266148;22;20083;-83
2022/09/23 17:44:29;;;;;;;24.33;21.15;;;;;;;;;;6295386;22;20023;-83
2022/09/23 17:46:57;;;;;;;29.27;22.17;;;;;;;;;;6295482;22;20349;-83
2022/09/23 17:49:23;;;;;;;23.75;21.30;;;;;;;;;;6271444;22;20093;-81
2022/09/23 17:51:52;;;;;;;26.77;22.58;;;;;;;;;;6296541;22;20839;-84
2022/09/23 17:54:21;;;;;;;25.30;22.60;;;;;;;;;;6297726;22;20048;-83
2022/09/23 17:56:50;;;;;;;26.90;22.73;;;;;;;;;;6298550;22;20072;-85
2022/09/23 17:59:22;;;;;;;31.60;22.60;;;;;;;;;;6247968;22;20647;-84
2022/09/23 18:01:48;;;;;;;27.48;22.92;;;;;;;;;;6220906;22;20375;-84
2022/09/23 18:04:20;;;;;;;31.38;24.50;;;;;;;;;;6274792;22;20056;-83